Gaillard Crossroads, South Carolina
Current Conditions -  °F | °C
As of 10:16 AM on Monday 24 Nov 2014 (Local Time) from KSSC Reporting Station
Overcast Overcast  
Wind Chill: 68°   Ceiling: 700
Heat Index: 68°   Visibility: 10mi
Dew Point: 66°   Wind: 14mph
Humidity: 94%   Direction: 190°S
Pressure: 29.86"   Gusts: NA
Location:  34.0134°N, 80.5102°W
Report Text: KSSC 241516Z AUTO 19012KT 10SM OVC007 20/19 A2986 RMK AO2
Loading
Personal Weather Stations






























Interactive Weather Map New forecast layout! Learn more

10-Day Weather Forecast

Advertisements
Track Severe Weather on mobile